Monte Toledo — CQRA — position and weather

sailwx.info

Track history (hours):
 
Tides and Currents Weather Stations Pressure Air Temp Water Temp Dewpoint Dewpoint Depression Visibility Wind Speed Wind Dir Waves Ship Positions

Monte Toledo

Last reported at 2015-Jan-15 04:32 UTC. Time now 2015-Jan-31 19:17 UTC.
Position N 10°11' W 017°10'.
Warning: this ship's position is 16 days out of date.

Length 274 m; draft 14.9 m.

Type: Tanker. MMSI: 255740000.

Date/timePositionNaut miles runAvg speedWind from/ knotsBaromVisibWave heightAir tempDewpointWater temp
2015-Jan-15 04:32N 10°11' W 017°10'1111.7
2015-Jan-15 03:34N 10°01' W 017°05'3611.9
2015-Jan-15 00:31N 09°35' W 016°39'1111.8
2015-Jan-14 23:33N 09°27' W 016°31'1211.7
2015-Jan-14 22:34N 09°18' W 016°23'1211.8
2015-Jan-14 21:34N 09°10' W 016°15'1211.6
2015-Jan-14 20:34N 09°01' W 016°07'1211.5
2015-Jan-14 19:34N 08°53' W 015°59'1211.4
2015-Jan-14 18:30N 08°44' W 015°51'3411.5
2015-Jan-14 15:34N 08°20' W 015°27'1511.8
2015-Jan-14 14:16N 08°09' W 015°16'1211.4
2015-Jan-14 13:13N 08°01' W 015°08'811.9
2015-Jan-14 12:34N 07°55' W 015°02'1211.5
2015-Jan-14 11:33N 07°46' W 014°54'1411.4
2015-Jan-14 10:22N 07°37' W 014°45'  
Track history (hours):
 
Tides and Currents Weather Stations Pressure Air Temp Water Temp Dewpoint Dewpoint Depression Visibility Wind Speed Wind Dir Waves Ship Positions

Monte Toledo

Last reported at 2015-Jan-15 04:32 UTC. Time now 2015-Jan-31 19:17 UTC.
Position N 10°11' W 017°10'.
Warning: this ship's position is 16 days out of date.

Length 274 m; draft 14.9 m.

Type: Tanker. MMSI: 255740000.

Date/timePositionNaut miles runAvg speedWind from/ knotsBaromVisibWave heightAir tempDewpointWater temp
2015-Jan-15 04:32N 10°11' W 017°10'1111.7
2015-Jan-15 03:34N 10°01' W 017°05'3611.9
2015-Jan-15 00:31N 09°35' W 016°39'1111.8
2015-Jan-14 23:33N 09°27' W 016°31'1211.7
2015-Jan-14 22:34N 09°18' W 016°23'1211.8
2015-Jan-14 21:34N 09°10' W 016°15'1211.6
2015-Jan-14 20:34N 09°01' W 016°07'1211.5
2015-Jan-14 19:34N 08°53' W 015°59'1211.4
2015-Jan-14 18:30N 08°44' W 015°51'3411.5
2015-Jan-14 15:34N 08°20' W 015°27'1511.8
2015-Jan-14 14:16N 08°09' W 015°16'1211.4
2015-Jan-14 13:13N 08°01' W 015°08'811.9
2015-Jan-14 12:34N 07°55' W 015°02'1211.5
2015-Jan-14 11:33N 07°46' W 014°54'1411.4
2015-Jan-14 10:22N 07°37' W 014°45'  

Dump ship's entire track history